Riverhead, New York
Current Conditions -  °F | °C
As of 3:53 PM on Saturday 20 Dec 2014 (Local Time) from KFOK Reporting Station
Overcast Overcast  
Wind Chill: 26°   Ceiling: 2000
Heat Index: 32°   Visibility: 10mi
Dew Point: 24°   Wind: 7mph
Humidity: 73%   Direction: 330°NNW
Pressure: 30.27"   Gusts: NA
Location:  40.94°N, 72.64°W
Report Text: KFOK 202053Z 33006KT 10SM OVC020 00/M04 A3027 RMK AO2 SLP250 T00001044 55002
Loading
Personal Weather Stations






























Interactive Weather Map New forecast layout! Learn more

10-Day Weather Forecast

Advertisements
Track Severe Weather on mobile